This is the latest recevied weather packets stored in our database for station/object AA9VI-10. If no packets are shown the sender has not sent any weather packets the latest 1 day(s).
| Time | Temp. | Humidity | Pressure | Rain* | Wind** | Luminosity | Snow |
|---|---|---|---|---|---|---|---|
| 1778090416 | 12.22° C | 37% | 1013.3 hPa | 0 mm | - | - | - |
| 1778089816 | 12.22° C | 36% | 1013.5 hPa | 0 mm | - | - | - |
| 1778086816 | 12.78° C | 35% | 1013.9 hPa | 0 mm | - | - | - |
| 1778086216 | 12.78° C | 37% | 1014 hPa | 0 mm | - | - | - |
| 1778085616 | 12.78° C | 37% | 1013.7 hPa | 0 mm | - | - | - |
| 1778082616 | 11.67° C | 43% | 1013.9 hPa | 0 mm | - | - | - |
| 1778082016 | 11.11° C | 39% | 1013.8 hPa | 0 mm | - | - | - |
| 1778081416 | 11.11° C | 41% | 1013.8 hPa | 0 mm | - | - | - |
| 1778080816 | 11.11° C | 41% | 1013.9 hPa | 0 mm | - | - | - |
| 1778079616 | 11.67° C | 41% | 1014 hPa | 0 mm | - | - | - |
| 1778079016 | 11.11° C | 45% | 1013.9 hPa | 0 mm | - | - | - |
| 1778077216 | 10.56° C | 43% | 1013.8 hPa | 0 mm | - | - | - |
| 1778076616 | 10.56° C | 39% | 1013.8 hPa | 0 mm | - | - | - |
| 1778076016 | 10° C | 42% | 1013.8 hPa | 0 mm | - | - | - |
| 1778074216 | 9.44° C | 44% | 1013.4 hPa | 0 mm | - | - | - |
| 1778073016 | 8.33° C | 51% | 1013.2 hPa | 0 mm | - | - | - |
| 1778071816 | 7.22° C | 61% | 1013.1 hPa | 0 mm | - | - | - |
| 1778071216 | 6.67° C | 63% | 1012.9 hPa | 0 mm | - | - | - |
| 1778070616 | 6.11° C | 69% | 1012.8 hPa | 0 mm | - | - | - |
| 1778070018 | 5.56° C | 71% | 1012.6 hPa | 0 mm | - | - | - |
| 1778069418 | 5° C | 76% | 1012.5 hPa | 0 mm | - | - | - |
| 1778068818 | 3.89° C | 78% | 1012.3 hPa | 0 mm | - | - | - |
| 1778068218 | 3.89° C | 79% | 1012.1 hPa | 0 mm | - | - | - |
| 1778067618 | 3.33° C | 79% | 1012.1 hPa | 0 mm | - | - | - |
| 1778067018 | 3.33° C | 78% | 1012.1 hPa | 0 mm | - | - | - |
* Rain latest hour (hover to see other rain measurements)
** Current wind speed in m/s (hover to see current wind gust speed)